EW9431 Weather Reports


Display with metric or nautical units.
time (UTC)temp
F
wind
direction
speed
MPH
gust
MPH
rain 1hr
in
rain 24hr
in
rain mn
in
humidity
%
barometer
mb
20210410135954 32 29 0.0 0.0 0.00 0.66 0.02 93 1017.1
20210410134546 32 338 0.0 0.0 0.00 0.66 0.02 93 1017.1
20210410134025 32 5 0.0 0.0 0.00 0.66 0.02 92 1017.0
20210410133025 33 24 0.0 0.0 0.00 0.66 0.02 92 1016.8
20210410132328 33 322 0.0 0.0 0.00 0.66 0.02 92 1016.8
20210410131031 33 332 0.0 0.0 0.00 0.66 0.02 92 1016.4
20210410130506 33 332 0.0 0.0 0.00 0.66 0.02 92 1016.4
20210410125711 34 43 0.0 0.0 0.00 0.66 0.02 92 1015.9
20210410123218 34 360 0.0 0.0 0.00 0.66 0.02 92 1015.8
20210410121542 34 298 0.0 0.0 0.00 0.66 0.02 92 1015.7
20210410120227 34 289 0.0 6.0 0.01 0.66 0.02 91 1015.4
20210410114523 35 345 0.0 0.0 0.01 0.66 0.02 90 1015.4
20210410113517 35 45 0.0 0.0 0.01 0.66 0.02 90 1015.0
20210410112444 35 56 0.0 0.0 0.01 0.66 0.02 90 1015.0
20210410111021 35 56 0.0 0.0 0.01 0.66 0.02 90 1014.8
20210410110033 35 160 0.0 0.0 0.00 0.65 0.01 90 1014.8
20210410105215 35 223 0.0 0.0 0.00 0.65 0.01 90 1014.7
20210410104512 36 223 0.0 0.0 0.00 0.65 0.01 89 1014.4
20210410103515 36 44 0.0 0.0 0.00 0.65 0.01 89 1014.3
20210410103025 36 46 0.0 0.0 0.00 0.65 0.01 89 1014.2
20210410102318 36 355 0.0 0.0 0.01 0.65 0.01 89 1014.0
20210410101521 36 283 0.0 0.0 0.01 0.65 0.01 89 1014.0
20210410101020 36 327 0.0 0.0 0.01 0.65 0.01 89 1014.1
20210410100519 36 291 0.0 0.0 0.01 0.65 0.01 89 1014.1
20210410095857 36 80 0.0 2.0 0.01 0.65 0.01 89 1014.1
20210410095449 36 278 0.0 18.0 0.01 0.65 0.01 89 1014.0
20210410094535 36 41 1.0 18.0 0.01 0.65 0.01 90 1013.9
20210410093515 36 197 0.0 6.0 0.01 0.65 0.01 91 1014.0
20210410092700 36 230 0.0 2.0 0.01 0.65 0.01 92 1013.8
20210410092135 37 53 0.0 2.0 0.00 0.64 0.00 92 1013.7
20210410090511 37 297 0.0 6.0 0.00 0.64 0.00 93 1013.6
20210410085200 38 329 0.0 1.0 0.00 0.64 0.00 94 1013.2
20210410084021 38 278 0.0 1.0 0.00 0.64 0.00 94 1013.3
20210410083023 38 280 0.0 0.0 0.00 0.64 0.00 94 1013.2
20210410082105 38 343 0.0 0.0 0.00 0.64 0.00 94 1013.5
20210410081027 38 353 0.0 1.0 0.00 0.64 0.00 94 1013.4
20210410075838 38 355 0.0 0.0 0.00 0.64 0.00 94 1013.2
20210410074529 38 297 0.0 0.0 0.00 0.64 0.00 94 1013.2
20210410073516 39 317 0.0 0.0 0.00 0.64 0.00 94 1012.9
20210410073019 39 298 0.0 0.0 0.00 0.64 0.00 94 1012.8
20210410072040 39 291 0.0 0.0 0.00 0.64 0.00 94 1012.7
20210410071019 39 284 0.0 0.0 0.00 0.64 0.00 94 1012.7
20210410070026 39 277 0.0 0.0 0.00 0.64 0.00 94 1012.7
20210410065837 39 277 0.0 0.0 0.00 0.64 0.64 94 1012.8
20210410064538 40 263 0.0 0.0 0.00 0.64 0.64 94 1012.7
20210410060511 40 277 0.0 0.0 0.01 0.64 0.64 94 1012.8
20210410054522 40 259 0.0 0.0 0.01 0.64 0.64 94 1012.7
20210410053527 40 207 1.0 9.0 0.01 0.64 0.64 94 1012.5
20210410052236 40 205 0.0 2.0 0.00 0.63 0.63 94 1012.6
20210410051032 40 185 0.0 3.0 0.00 0.63 0.63 94 1012.7
20210410050119 40 198 0.0 2.0 0.00 0.63 0.63 94 1012.8
20210410044533 40 137 0.0 0.0 0.00 0.63 0.63 94 1012.8
20210410044019 40 83 0.0 5.0 0.00 0.63 0.63 94 1012.8
20210410043039 40 180 0.0 0.0 0.00 0.63 0.63 94 1013.0
20210410042234 40 110 0.0 0.0 0.00 0.63 0.63 94 1012.9
20210410041021 40 91 0.0 0.0 0.03 0.63 0.63 94 1013.1
20210410040520 40 199 0.0 0.0 0.03 0.63 0.63 94 1013.1
20210410035927 40 205 0.0 0.0 0.05 0.63 0.63 94 1013.2
20210410034028 40 97 0.0 7.0 0.07 0.63 0.63 94 1013.1
20210410033106 40 177 0.0 0.0 0.10 0.63 0.63 94 1013.2
20210410032914 40 119 0.0 2.0 0.12 0.63 0.63 94 1013.2
20210410031530 40 47 0.0 0.0 0.12 0.61 0.61 94 1013.2
20210410025956 40 65 0.0 0.0 0.15 0.57 0.57 94 1013.6
20210410024524 40 63 0.0 0.0 0.16 0.56 0.56 94 1013.6
20210410023514 40 354 0.0 4.0 0.15 0.54 0.54 94 1013.9
20210410022758 40 72 0.0 0.0 0.13 0.51 0.51 94 1014.1
20210410022132 40 62 0.0 0.0 0.13 0.50 0.50 94 1014.1
20210410021514 40 64 0.0 0.0 0.12 0.49 0.49 94 1014.2
20210410015831 40 48 0.0 1.0 0.07 0.43 0.43 93 1014.7
20210410014524 40 69 0.0 4.0 0.05 0.40 0.40 93 1014.8
20210410014024 40 52 0.0 4.0 0.05 0.39 0.39 93 1014.8
20210410013021 40 52 0.0 0.0 0.04 0.38 0.38 93 1015.0
20210410012753 40 60 0.0 0.0 0.04 0.38 0.38 93 1015.1
20210410011512 40 78 0.0 6.0 0.03 0.37 0.37 93 1015.3
20210410011020 40 62 0.0 6.0 0.04 0.37 0.37 93 1015.4
20210410010512 40 51 0.0 2.0 0.04 0.37 0.37 93 1015.4
20210410005359 40 43 0.0 0.0 0.02 0.35 0.35 93 1015.7
20210410004022 40 67 0.0 2.0 0.01 0.34 0.34 93 1016.0
20210410003511 40 49 0.0 0.0 0.01 0.34 0.34 93 1016.1
20210410002758 40 49 0.0 10.0 0.02 0.34 0.34 93 1016.3
20210410002224 40 76 0.0 0.0 0.02 0.34 0.34 93 1016.4
20210410001029 40 46 0.0 0.0 0.01 0.33 0.33 93 1016.6
20210409233506 39 21 0.0 0.0 0.03 0.33 0.33 93 1017.3
20210409232818 39 62 0.0 0.0 0.03 0.32 0.32 93 1017.5
20210409231517 39 62 0.0 2.0 0.04 0.32 0.32 93 1017.8
20210409230646 39 67 0.0 2.0 0.05 0.32 0.32 93 1017.9
20210409230037 39 37 0.0 5.0 0.04 0.31 0.31 93 1018.0
20210409225150 39 183 0.0 5.0 0.04 0.31 0.31 93 1018.2
20210409224033 39 61 0.0 0.0 0.04 0.30 0.30 93 1018.4
20210409223029 39 91 0.0 2.0 0.04 0.30 0.30 93 1018.6
20210409222120 39 61 0.0 2.0 0.04 0.28 0.28 93 1018.8
20210409214513 39 72 0.0 2.0 0.02 0.26 0.26 93 1019.2
20210409214020 39 101 0.0 2.0 0.03 0.26 0.26 93 1019.3
20210409213535 39 39 0.0 1.0 0.03 0.26 0.26 93 1019.3
20210409212822 39 49 0.0 1.0 0.03 0.26 0.26 93 1019.5
20210409211558 39 99 0.0 1.0 0.03 0.25 0.25 93 1019.6
20210409211012 39 76 0.0 0.0 0.04 0.25 0.25 93 1019.7
20210409205831 39 58 0.0 1.0 0.05 0.24 0.24 93 1019.7
20210409205259 39 66 0.0 1.0 0.06 0.24 0.24 93 1019.8
20210409204017 39 67 0.0 0.0 0.06 0.23 0.23 93 1020.0
20210409203519 39 54 0.0 0.0 0.06 0.23 0.23 93 1020.0
20210409202746 39 85 0.0 0.0 0.07 0.23 0.23 93 1020.1
20210409202114 39 64 0.0 0.0 0.07 0.23 0.23 93 1020.1
20210409201026 39 65 0.0 0.0 0.06 0.21 0.21 93 1020.2
20210409200143 39 174 0.0 0.0 0.07 0.20 0.20 93 1020.3
20210409195922 39 21 0.0 0.0 0.07 0.19 0.19 93 1020.4
20210409195315 39 47 0.0 0.0 0.07 0.18 0.18 93 1020.4
20210409194026 39 56 0.0 0.0 0.08 0.17 0.17 92 1020.5
20210409192835 38 33 0.0 3.0 0.09 0.16 0.16 91 1020.5
20210409192119 38 93 0.0 3.0 0.09 0.16 0.16 91 1020.6
20210409191523 38 61 0.0 0.0 0.09 0.15 0.15 91 1020.6
20210409190129 38 10 0.0 0.0 0.09 0.13 0.13 90 1020.6
20210409185950 38 50 0.0 0.0 0.08 0.12 0.12 90 1020.9
20210409185449 38 80 0.0 0.0 0.07 0.11 0.11 90 1020.9
20210409184535 38 98 0.0 0.0 0.07 0.10 0.10 90 1021.0
20210409184030 39 39 0.0 0.0 0.06 0.09 0.09 90 1021.1
20210409183523 39 90 0.0 0.0 0.06 0.09 0.09 90 1021.1
20210409182428 39 82 0.0 1.0 0.05 0.07 0.07 90 1021.0
20210409181023 39 50 0.0 0.0 0.03 0.05 0.05 89 1021.1
20210409180550 39 93 0.0 7.0 0.03 0.05 0.05 89 1021.1
20210409175948 39 64 0.0 0.0 0.03 0.04 0.04 89 1021.1
20210409175410 39 93 0.0 0.0 0.03 0.04 0.04 89 1021.1
20210409174020 39 108 0.0 0.0 0.02 0.03 0.03 88 1021.1
20210409173036 39 79 0.0 0.0 0.01 0.02 0.02 88 1021.2
20210409172210 39 112 0.0 1.0 0.02 0.02 0.02 87 1021.3
20210409171531 39 64 0.0 5.0 0.02 0.02 0.02 87 1021.2
20210409171026 39 68 0.0 5.0 0.02 0.02 0.02 87 1021.2
20210409170542 39 29 0.0 0.0 0.02 0.02 0.02 86 1021.3
20210409165916 39 37 0.0 0.0 0.01 0.01 0.01 86 1021.2
20210409164515 39 38 0.0 0.0 0.01 0.01 0.01 85 1021.3
20210409163529 40 63 0.0 0.0 0.01 0.01 0.01 84 1021.1
20210409163033 40 87 0.0 0.0 0.01 0.01 0.01 84 1021.3
20210409162640 40 70 0.0 0.0 0.00 0.00 0.00 84 1021.4
20210409161528 40 72 0.0 0.0 0.00 0.00 0.00 82 1021.4
20210409160526 40 61 0.0 0.0 0.00 0.00 0.00 81 1021.5
20210409145338 39 62 0.0 0.0 0.00 0.00 0.00 78 1021.7
20210409144022 39 60 0.0 0.0 0.00 0.00 0.00 78 1021.8
20210409143516 39 58 0.0 0.0 0.00 0.00 0.00 78 1021.6
20210409142735 39 68 0.0 0.0 0.00 0.00 0.00 78 1022.0
20210409142222 39 43 0.0 0.0 0.00 0.00 0.00 78 1022.0
20210409141528 39 91 0.0 0.0 0.00 0.00 0.00 78 1022.0
20210409141033 39 44 0.0 0.0 0.00 0.00 0.00 78 1022.0
20210409140520 39 62 0.0 0.0 0.00 0.00 0.00 78 1022.0